Time;durP1;ratioP1;P1;durP2;ratioP2;P2;SDS_P1;SDS_P2;PMS_P1;PMS_P2;Temp;Humidity;BMP_temperature;BMP_pressure;BME280_temperature;BME280_humidity;BME280_pressure;Samples;Min_cycle;Max_cycle;Signal;HPM_P1;HPM_P2
2022/01/07 00:00:18;;;;;;;11.55;4.72;;;4.00;99.90;;;;;;4949471;28;20043;-68
2022/01/07 00:02:45;;;;;;;10.40;3.67;;;3.90;99.90;;;;;;4933693;29;20126;-68
2022/01/07 00:05:12;;;;;;;13.27;5.43;;;3.90;99.90;;;;;;4949500;28;20050;-68
2022/01/07 00:07:38;;;;;;;11.57;4.43;;;3.80;99.90;;;;;;4949446;29;20557;-69
2022/01/07 00:10:06;;;;;;;15.57;6.07;;;3.80;99.90;;;;;;4965479;28;20287;-69
2022/01/07 00:12:32;;;;;;;16.88;4.00;;;3.80;99.90;;;;;;4935499;29;20040;-68
2022/01/07 00:14:58;;;;;;;11.60;4.65;;;3.80;99.90;;;;;;4937096;29;20381;-69
2022/01/07 00:17:24;;;;;;;8.38;4.72;;;3.80;99.90;;;;;;4985580;28;20057;-69
2022/01/07 00:19:49;;;;;;;9.18;3.80;;;3.70;99.90;;;;;;4952617;29;20407;-69
2022/01/07 00:22:15;;;;;;;10.63;4.60;;;3.70;99.90;;;;;;4964841;28;20111;-68
2022/01/07 00:24:41;;;;;;;9.77;4.68;;;3.70;99.90;;;;;;5001964;28;20564;-69
2022/01/07 00:27:07;;;;;;;11.23;5.43;;;3.70;99.90;;;;;;5004450;28;20047;-69
2022/01/07 00:29:33;;;;;;;12.43;4.60;;;3.70;99.90;;;;;;5004307;28;20176;-69
2022/01/07 00:32:00;;;;;;;12.65;5.00;;;3.70;99.90;;;;;;4988231;28;20039;-68
2022/01/07 00:34:26;;;;;;;11.98;5.32;;;3.70;99.90;;;;;;5004685;28;20050;-69
2022/01/07 00:36:51;;;;;;;10.02;4.72;;;3.70;99.90;;;;;;4991267;28;20100;-69
2022/01/07 00:39:17;;;;;;;9.00;4.00;;;3.70;99.90;;;;;;4991230;28;20038;-69
2022/01/07 00:41:43;;;;;;;9.02;5.22;;;3.70;99.90;;;;;;4990950;28;20490;-69
2022/01/07 00:44:09;;;;;;;13.65;4.40;;;3.70;99.90;;;;;;4991356;28;20038;-69
2022/01/07 00:46:34;;;;;;;9.50;3.90;;;3.60;99.90;;;;;;4990982;28;20414;-69
2022/01/07 00:49:00;;;;;;;11.05;4.53;;;3.60;99.90;;;;;;5007363;28;20130;-70
2022/01/07 00:51:26;;;;;;;12.63;4.38;;;3.60;99.90;;;;;;5007265;28;20042;-70
2022/01/07 00:53:52;;;;;;;12.43;4.82;;;3.60;99.90;;;;;;4990990;28;20064;-70
2022/01/07 00:56:18;;;;;;;9.32;5.22;;;3.60;99.90;;;;;;4988736;28;20042;-70
2022/01/07 00:58:44;;;;;;;11.63;4.40;;;3.60;99.90;;;;;;4991047;28;20491;-70
2022/01/07 01:01:09;;;;;;;12.80;5.70;;;3.50;99.90;;;;;;5007158;28;20117;-70
2022/01/07 01:03:35;;;;;;;10.98;4.25;;;3.50;99.90;;;;;;5007413;28;20042;-69
2022/01/07 01:06:01;;;;;;;9.55;3.72;;;3.50;99.90;;;;;;4990918;28;20398;-70
2022/01/07 01:08:27;;;;;;;13.23;5.45;;;3.50;99.90;;;;;;4974547;28;20049;-69
2022/01/07 01:10:54;;;;;;;14.25;6.28;;;3.40;99.90;;;;;;4990664;28;20502;-70
2022/01/07 01:13:21;;;;;;;8.57;3.65;;;3.30;99.90;;;;;;4990797;28;20502;-70
2022/01/07 01:15:47;;;;;;;8.80;4.03;;;3.40;99.90;;;;;;4990523;28;20046;-69
2022/01/07 01:18:13;;;;;;;13.98;5.72;;;3.30;99.90;;;;;;4990596;28;20046;-69
2022/01/07 01:20:39;;;;;;;7.70;3.65;;;3.30;99.90;;;;;;5006824;28;20046;-70
2022/01/07 01:23:05;;;;;;;12.02;6.00;;;3.30;99.90;;;;;;4970994;28;20130;-70
2022/01/07 01:25:31;;;;;;;9.32;4.53;;;3.30;99.90;;;;;;4968200;28;20078;-70
2022/01/07 01:27:57;;;;;;;10.25;4.03;;;3.30;99.90;;;;;;5003728;28;20042;-69
2022/01/07 01:30:27;;;;;;;7.13;3.55;;;3.30;99.90;;;;;;4970948;28;20514;-69
2022/01/07 01:32:53;;;;;;;9.93;4.70;;;3.30;99.90;;;;;;4999721;28;20122;-70
2022/01/07 01:35:20;;;;;;;12.18;5.35;;;3.30;99.90;;;;;;4951592;28;20039;-69
2022/01/07 01:37:49;;;;;;;11.35;5.13;;;3.20;99.90;;;;;;4952014;29;20392;-70
2022/01/07 01:40:18;;;;;;;16.13;4.88;;;3.30;99.90;;;;;;4951513;28;20043;-69
2022/01/07 01:42:45;;;;;;;16.85;8.43;;;3.20;99.90;;;;;;4951845;28;20040;-69
2022/01/07 01:45:11;;;;;;;10.02;4.75;;;3.20;99.90;;;;;;4951830;29;20424;-69
2022/01/07 01:47:37;;;;;;;10.95;5.82;;;3.20;99.90;;;;;;4951282;29;20535;-69
2022/01/07 01:50:04;;;;;;;12.75;8.00;;;3.20;99.90;;;;;;4951378;29;20082;-69
2022/01/07 01:52:30;;;;;;;12.25;9.35;;;3.20;99.90;;;;;;4951807;29;20043;-70
2022/01/07 01:54:56;;;;;;;12.48;7.10;;;3.10;99.90;;;;;;4949033;29;20565;-69
2022/01/07 01:57:22;;;;;;;17.85;9.05;;;3.10;99.90;;;;;;4951267;28;20047;-70
2022/01/07 01:59:48;;;;;;;12.30;7.15;;;3.10;99.90;;;;;;4951184;28;20101;-69
2022/01/07 02:02:14;;;;;;;11.30;6.70;;;3.10;99.90;;;;;;4935180;29;20058;-69
2022/01/07 02:04:40;;;;;;;7.30;4.78;;;3.10;99.90;;;;;;4967377;28;20051;-71
2022/01/07 02:07:08;;;;;;;12.93;7.40;;;3.10;99.90;;;;;;4951064;28;20078;-70
2022/01/07 02:09:35;;;;;;;15.63;7.55;;;3.10;99.90;;;;;;4951188;29;20518;-70
2022/01/07 02:12:06;;;;;;;13.20;7.97;;;3.10;99.90;;;;;;4935003;29;20515;-69
2022/01/07 02:14:34;;;;;;;11.10;5.53;;;3.10;99.90;;;;;;4951027;29;20043;-70
2022/01/07 02:17:06;;;;;;;12.48;4.82;;;3.00;99.90;;;;;;4950942;29;20055;-70
2022/01/07 02:19:32;;;;;;;11.63;5.30;;;3.10;99.90;;;;;;4935090;29;20130;-70
2022/01/07 02:21:57;;;;;;;14.85;8.63;;;3.10;99.90;;;;;;4944391;28;20483;-69
2022/01/07 02:24:23;;;;;;;5.82;3.45;;;3.00;99.90;;;;;;5000270;28;20051;-70
2022/01/07 02:26:49;;;;;;;7.22;4.85;;;3.00;99.90;;;;;;5002875;28;20038;-69
2022/01/07 02:29:15;;;;;;;9.60;4.47;;;3.00;99.90;;;;;;4986495;28;20495;-70
2022/01/07 02:31:41;;;;;;;12.02;7.75;;;3.10;99.90;;;;;;5002509;28;20491;-70
2022/01/07 02:34:06;;;;;;;15.73;6.70;;;3.10;99.90;;;;;;5000039;28;20076;-70
2022/01/07 02:36:32;;;;;;;16.88;8.50;;;3.10;99.90;;;;;;4989336;28;20042;-70
2022/01/07 02:38:58;;;;;;;16.90;9.70;;;3.10;99.90;;;;;;4989226;28;20122;-70
2022/01/07 02:41:24;;;;;;;10.02;6.57;;;3.00;99.90;;;;;;4989595;28;20050;-71
2022/01/07 02:43:49;;;;;;;17.60;7.53;;;3.00;99.90;;;;;;4989561;28;20502;-70
2022/01/07 02:46:15;;;;;;;9.60;5.57;;;3.00;99.90;;;;;;4989505;28;20136;-71
2022/01/07 02:48:41;;;;;;;13.00;8.73;;;3.10;99.90;;;;;;4989476;28;20045;-70
2022/01/07 02:51:07;;;;;;;15.85;9.75;;;3.10;99.90;;;;;;4989127;28;20050;-71
2022/01/07 02:53:33;;;;;;;18.77;9.85;;;3.10;99.90;;;;;;4989664;28;20042;-71
2022/01/07 02:55:58;;;;;;;11.45;7.70;;;3.00;99.90;;;;;;4986678;28;20437;-70
2022/01/07 02:58:24;;;;;;;13.65;6.95;;;3.10;99.90;;;;;;4972704;28;20103;-71
2022/01/07 03:00:50;;;;;;;10.65;5.97;;;3.10;99.90;;;;;;4989339;28;20096;-70
2022/01/07 03:03:16;;;;;;;8.27;5.97;;;3.10;99.90;;;;;;4972821;28;20314;-69
2022/01/07 03:05:42;;;;;;;14.15;8.65;;;3.20;99.90;;;;;;4989202;28;20038;-71
2022/01/07 03:08:09;;;;;;;10.65;6.90;;;3.20;99.90;;;;;;4972640;28;20502;-70
2022/01/07 03:10:35;;;;;;;14.75;7.20;;;3.20;99.90;;;;;;4973075;28;20039;-71
2022/01/07 03:13:03;;;;;;;13.05;6.45;;;3.20;99.90;;;;;;4989071;28;20111;-71
2022/01/07 03:15:31;;;;;;;8.30;4.13;;;3.20;99.90;;;;;;4989035;28;20046;-71
2022/01/07 03:17:57;;;;;;;10.93;6.65;;;3.20;99.90;;;;;;5005092;28;20092;-71
2022/01/07 03:20:23;;;;;;;15.93;8.13;;;3.20;99.90;;;;;;5004931;28;20050;-71
2022/01/07 03:22:50;;;;;;;16.48;10.15;;;3.20;99.90;;;;;;4971980;28;20051;-71
2022/01/07 03:25:17;;;;;;;13.95;9.82;;;3.20;99.90;;;;;;4999408;28;20043;-71
2022/01/07 03:27:43;;;;;;;14.93;7.97;;;3.20;99.90;;;;;;4969362;28;20391;-71
2022/01/07 03:30:11;;;;;;;14.00;5.70;;;3.20;99.90;;;;;;4969421;28;20054;-71
2022/01/07 03:32:38;;;;;;;15.07;7.60;;;3.20;99.90;;;;;;4967515;28;20153;-71
2022/01/07 03:35:06;;;;;;;13.25;8.40;;;3.20;99.90;;;;;;4949910;28;20134;-71
2022/01/07 03:37:31;;;;;;;6.97;4.88;;;3.20;99.90;;;;;;4933939;29;20043;-72
2022/01/07 03:39:57;;;;;;;12.57;5.38;;;3.20;99.90;;;;;;4949688;28;20058;-72
2022/01/07 03:42:23;;;;;;;11.95;8.27;;;3.20;99.90;;;;;;4949634;29;20039;-72
2022/01/07 03:44:49;;;;;;;12.10;8.23;;;3.20;99.90;;;;;;4934047;29;20123;-72
2022/01/07 03:47:15;;;;;;;10.05;6.28;;;3.20;99.90;;;;;;4936998;29;20050;-72
2022/01/07 03:49:40;;;;;;;10.93;6.90;;;3.20;99.90;;;;;;4956106;29;20055;-72
2022/01/07 03:52:06;;;;;;;10.25;6.90;;;3.20;99.90;;;;;;4956152;28;20043;-72
2022/01/07 03:54:32;;;;;;;14.30;7.22;;;3.20;99.90;;;;;;4953631;28;20507;-72
2022/01/07 03:56:58;;;;;;;18.17;8.95;;;3.20;99.90;;;;;;4988434;28;20101;-71
2022/01/07 03:59:24;;;;;;;10.68;5.43;;;3.20;99.90;;;;;;4956059;29;20082;-71
2022/01/07 04:01:50;;;;;;;9.80;5.45;;;3.20;99.90;;;;;;4956230;28;20039;-71
2022/01/07 04:04:15;;;;;;;13.38;6.85;;;3.20;99.90;;;;;;4955885;29;20035;-71
2022/01/07 04:06:41;;;;;;;6.03;4.30;;;3.20;99.90;;;;;;4956034;29;20047;-71
2022/01/07 04:09:07;;;;;;;8.23;5.05;;;3.20;99.90;;;;;;4956030;28;20072;-71
2022/01/07 04:11:33;;;;;;;9.82;6.35;;;3.20;99.90;;;;;;4956013;28;20043;-70
2022/01/07 04:13:59;;;;;;;8.85;6.05;;;3.20;99.90;;;;;;4955671;29;20615;-71
2022/01/07 04:16:24;;;;;;;7.07;4.28;;;3.20;99.90;;;;;;4955797;29;20062;-71
2022/01/07 04:18:50;;;;;;;11.15;6.32;;;3.20;99.90;;;;;;4955836;28;20054;-71
2022/01/07 04:21:16;;;;;;;10.10;5.43;;;3.30;99.90;;;;;;4959915;28;20055;-69
2022/01/07 04:23:42;;;;;;;7.82;4.95;;;3.30;99.90;;;;;;4991051;28;20411;-71
2022/01/07 04:26:08;;;;;;;14.20;9.07;;;3.20;99.90;;;;;;4988932;28;20043;-71
2022/01/07 04:28:34;;;;;;;14.07;10.02;;;3.30;99.90;;;;;;4991032;28;20584;-71
2022/01/07 04:31:00;;;;;;;11.52;6.38;;;3.20;99.90;;;;;;5007767;28;20061;-71
2022/01/07 04:33:27;;;;;;;13.88;9.15;;;3.30;99.90;;;;;;4999292;28;20486;-70
2022/01/07 04:35:55;;;;;;;11.23;9.20;;;3.30;99.90;;;;;;4994333;28;20082;-71
2022/01/07 04:38:22;;;;;;;9.60;6.90;;;3.30;99.90;;;;;;4994143;28;20096;-70
2022/01/07 04:40:47;;;;;;;5.10;3.45;;;3.40;99.90;;;;;;4994270;28;20073;-71
2022/01/07 04:43:13;;;;;;;9.57;5.40;;;3.30;99.90;;;;;;4994197;28;20081;-70
2022/01/07 04:45:39;;;;;;;7.10;4.97;;;3.40;99.90;;;;;;5010635;28;20042;-71
2022/01/07 04:48:06;;;;;;;6.60;3.97;;;3.40;99.90;;;;;;4994129;28;20072;-71
2022/01/07 04:50:32;;;;;;;7.80;5.40;;;3.40;99.90;;;;;;4994206;28;20373;-70
2022/01/07 04:52:58;;;;;;;12.73;8.63;;;3.40;99.90;;;;;;4994305;28;20035;-70
2022/01/07 04:55:26;;;;;;;9.95;6.70;;;3.30;99.90;;;;;;4991864;28;20050;-71
2022/01/07 04:57:53;;;;;;;10.38;7.82;;;3.30;99.90;;;;;;5026044;28;20578;-70
2022/01/07 05:00:21;;;;;;;10.23;6.63;;;3.30;99.90;;;;;;5007117;28;20045;-70
2022/01/07 05:02:48;;;;;;;6.88;5.50;;;3.40;99.90;;;;;;4991002;28;20041;-71
2022/01/07 05:05:14;;;;;;;6.25;3.92;;;3.40;99.90;;;;;;4991072;28;20034;-70
2022/01/07 05:07:40;;;;;;;10.55;8.40;;;3.40;99.90;;;;;;4990694;28;20409;-70
2022/01/07 05:10:09;;;;;;;10.75;6.70;;;3.40;99.90;;;;;;4974694;28;20394;-70
2022/01/07 05:12:35;;;;;;;7.30;4.70;;;3.40;99.90;;;;;;4990641;28;20050;-70
2022/01/07 05:15:02;;;;;;;9.05;5.88;;;3.40;99.90;;;;;;4990606;28;20050;-70
2022/01/07 05:17:28;;;;;;;10.02;6.50;;;3.40;99.90;;;;;;4990627;28;20589;-71
2022/01/07 05:19:54;;;;;;;7.95;5.57;;;3.50;99.90;;;;;;4990500;28;20130;-71
2022/01/07 05:22:20;;;;;;;12.05;6.72;;;3.40;99.90;;;;;;4961588;28;20067;-69
2022/01/07 05:24:46;;;;;;;5.88;4.55;;;3.50;99.90;;;;;;4968573;28;20118;-68
2022/01/07 05:27:12;;;;;;;7.28;4.05;;;3.50;99.90;;;;;;4971116;28;20047;-70
2022/01/07 05:29:38;;;;;;;9.80;6.57;;;3.50;99.90;;;;;;4970905;28;20074;-69
2022/01/07 05:32:05;;;;;;;6.13;4.22;;;3.50;99.90;;;;;;5003642;28;20126;-69
2022/01/07 05:34:32;;;;;;;9.57;6.40;;;3.50;99.90;;;;;;4938008;29;20039;-69
2022/01/07 05:36:57;;;;;;;6.85;4.63;;;3.50;99.90;;;;;;4951571;29;20043;-69
2022/01/07 05:39:24;;;;;;;4.35;3.45;;;3.50;99.90;;;;;;4935491;28;20048;-68
2022/01/07 05:41:51;;;;;;;11.75;7.90;;;3.60;99.90;;;;;;4951897;28;20438;-70
2022/01/07 05:44:17;;;;;;;8.48;4.60;;;3.50;99.90;;;;;;4951760;28;20391;-70
2022/01/07 05:46:43;;;;;;;5.78;4.13;;;3.50;99.90;;;;;;4967619;28;20043;-70
2022/01/07 05:49:09;;;;;;;5.78;3.75;;;3.60;99.90;;;;;;4951321;29;20043;-70
2022/01/07 05:51:35;;;;;;;10.75;7.72;;;3.60;99.90;;;;;;4951329;28;20047;-70
2022/01/07 05:54:01;;;;;;;9.40;6.00;;;3.60;99.90;;;;;;4983667;28;20047;-69
2022/01/07 05:56:26;;;;;;;9.40;6.13;;;3.60;99.90;;;;;;4949040;28;20051;-70
2022/01/07 05:58:53;;;;;;;8.40;5.18;;;3.60;99.90;;;;;;4935377;29;20051;-69
2022/01/07 06:01:18;;;;;;;8.32;4.57;;;3.60;99.90;;;;;;4951480;29;20118;-70
2022/01/07 06:03:44;;;;;;;8.43;5.20;;;3.60;99.90;;;;;;4951159;29;20130;-71
2022/01/07 06:06:10;;;;;;;14.90;8.98;;;3.60;99.90;;;;;;4951452;28;20047;-70
2022/01/07 06:08:37;;;;;;;12.60;9.70;;;3.60;99.90;;;;;;4935117;28;20134;-70
2022/01/07 06:11:03;;;;;;;9.82;8.15;;;3.60;99.90;;;;;;4950834;28;20391;-70
2022/01/07 06:13:29;;;;;;;9.60;6.63;;;3.70;99.90;;;;;;4951215;29;20047;-70
2022/01/07 06:15:55;;;;;;;10.95;8.77;;;3.70;99.90;;;;;;4951326;28;20514;-70
2022/01/07 06:18:20;;;;;;;13.07;9.23;;;3.70;99.90;;;;;;4935031;29;20385;-70
2022/01/07 06:20:46;;;;;;;14.10;9.27;;;3.80;99.90;;;;;;4967155;28;20046;-70
2022/01/07 06:23:12;;;;;;;12.27;10.35;;;3.70;99.90;;;;;;5005854;28;20058;-70
2022/01/07 06:25:38;;;;;;;11.73;9.25;;;3.80;99.90;;;;;;5003386;28;20042;-70
2022/01/07 06:28:04;;;;;;;11.75;6.32;;;3.80;99.90;;;;;;5005867;28;20038;-70
2022/01/07 06:30:30;;;;;;;14.73;10.10;;;3.80;99.90;;;;;;4989581;28;20050;-69
2022/01/07 06:32:56;;;;;;;12.75;10.00;;;3.80;99.90;;;;;;5010286;28;20075;-70
2022/01/07 06:35:22;;;;;;;12.63;9.95;;;3.80;99.90;;;;;;4992807;28;20052;-70
2022/01/07 06:37:48;;;;;;;11.60;8.88;;;3.80;99.90;;;;;;4992808;28;20048;-69
2022/01/07 06:40:14;;;;;;;15.30;11.23;;;3.80;99.90;;;;;;4992389;28;20125;-69
2022/01/07 06:42:40;;;;;;;11.23;8.52;;;3.80;99.90;;;;;;5025406;28;20124;-69
2022/01/07 06:45:06;;;;;;;12.70;10.00;;;3.80;99.90;;;;;;4992811;28;20053;-70
2022/01/07 06:47:33;;;;;;;10.27;7.70;;;3.90;99.90;;;;;;4992756;28;20046;-69
2022/01/07 06:49:59;;;;;;;13.25;10.07;;;3.90;99.90;;;;;;4992463;28;20048;-69
2022/01/07 06:52:25;;;;;;;10.82;8.90;;;3.90;99.90;;;;;;5025166;28;20049;-70
2022/01/07 06:54:50;;;;;;;12.52;9.30;;;3.90;99.90;;;;;;4990275;28;20057;-70
2022/01/07 06:57:17;;;;;;;16.98;12.63;;;3.90;99.90;;;;;;4992357;28;20620;-69
2022/01/07 06:59:45;;;;;;;17.52;12.85;;;3.90;99.90;;;;;;4992554;28;20034;-69
2022/01/07 07:02:11;;;;;;;14.68;10.45;;;4.00;99.90;;;;;;4976374;28;20074;-69
2022/01/07 07:04:37;;;;;;;20.27;13.77;;;4.00;99.90;;;;;;4975970;28;20076;-69
2022/01/07 07:07:03;;;;;;;16.65;13.48;;;4.00;99.90;;;;;;5008808;28;20074;-69
2022/01/07 07:09:29;;;;;;;17.08;13.45;;;4.00;99.90;;;;;;4992359;28;20065;-69
2022/01/07 07:11:54;;;;;;;18.95;13.27;;;4.00;99.90;;;;;;5024930;28;20045;-69
2022/01/07 07:14:20;;;;;;;15.68;12.00;;;4.00;99.90;;;;;;5024709;28;20042;-69
2022/01/07 07:16:46;;;;;;;15.13;11.40;;;4.00;99.90;;;;;;5008581;28;20051;-69
2022/01/07 07:19:12;;;;;;;13.95;10.70;;;4.10;99.90;;;;;;5024843;28;20121;-69
2022/01/07 07:21:38;;;;;;;14.95;11.23;;;4.10;99.90;;;;;;4990778;28;20494;-69
2022/01/07 07:24:04;;;;;;;16.42;12.63;;;4.10;99.90;;;;;;4992182;28;20045;-69
2022/01/07 07:26:31;;;;;;;15.23;10.70;;;4.10;99.90;;;;;;4990032;28;20048;-69
2022/01/07 07:28:57;;;;;;;20.73;14.45;;;4.00;99.90;;;;;;4991883;28;20043;-68
2022/01/07 07:31:22;;;;;;;22.80;13.07;;;4.10;99.90;;;;;;5008388;28;20038;-69
2022/01/07 07:36:31;;;;;;;18.50;12.77;;;4.20;99.90;;;;;;4992829;28;20590;-69
2022/01/07 07:39:03;;;;;;;21.35;13.23;;;4.20;99.90;;;;;;4991690;28;20099;-69
2022/01/07 07:41:30;;;;;;;17.17;13.27;;;4.20;99.90;;;;;;4991995;28;20394;-68
2022/01/07 07:43:57;;;;;;;19.63;13.50;;;4.30;99.90;;;;;;4992028;28;20030;-68
2022/01/07 07:46:25;;;;;;;23.15;15.60;;;4.30;99.90;;;;;;4991831;28;20133;-68
2022/01/07 07:48:51;;;;;;;16.23;11.55;;;4.30;99.90;;;;;;4975502;28;20111;-69
2022/01/07 07:51:18;;;;;;;20.38;14.40;;;4.40;99.90;;;;;;4991770;28;20120;-68
2022/01/07 07:53:44;;;;;;;22.80;15.68;;;4.40;99.90;;;;;;4992027;28;20371;-69
2022/01/07 07:56:13;;;;;;;14.23;10.30;;;4.40;99.90;;;;;;4989132;28;20498;-69
2022/01/07 07:58:41;;;;;;;24.50;16.83;;;4.30;99.90;;;;;;4991452;28;20056;-69
2022/01/07 08:01:07;;;;;;;18.27;13.52;;;4.30;99.90;;;;;;5001423;28;20068;-69
2022/01/07 08:03:33;;;;;;;26.05;16.50;;;4.30;99.90;;;;;;5093883;28;20043;-70
2022/01/07 08:05:59;;;;;;;23.23;15.50;;;4.30;99.90;;;;;;5026459;28;20095;-70
2022/01/07 08:08:25;;;;;;;22.15;16.50;;;4.30;99.90;;;;;;4991777;28;20058;-69
2022/01/07 08:10:55;;;;;;;22.50;14.10;;;4.30;99.90;;;;;;4989707;28;20474;-69
2022/01/07 08:16:10;;;;;;;27.08;17.17;;;4.30;99.90;;;;;;5093590;28;20055;-70
2022/01/07 08:18:37;;;;;;;22.95;14.98;;;4.30;99.90;;;;;;5024360;28;20090;-70
2022/01/07 08:21:08;;;;;;;18.00;12.88;;;4.30;99.90;;;;;;4991187;28;20038;-70
2022/01/07 08:23:36;;;;;;;28.40;18.48;;;4.30;99.90;;;;;;4975325;28;20038;-70
2022/01/07 08:26:09;;;;;;;29.65;17.75;;;4.20;99.90;;;;;;4988664;28;20482;-69
2022/01/07 08:28:41;;;;;;;21.65;13.35;;;4.30;99.90;;;;;;4991197;28;20091;-70
2022/01/07 08:36:21;;;;;;;24.08;18.50;;;4.30;99.90;;;;;;4994768;28;20078;-70
2022/01/07 08:38:49;;;;;;;28.25;18.73;;;4.30;99.90;;;;;;4994569;28;20050;-70
2022/01/07 08:41:16;;;;;;;20.08;12.40;;;4.30;99.90;;;;;;4994332;28;20528;-70
2022/01/07 08:43:43;;;;;;;24.50;16.80;;;4.30;99.90;;;;;;4978527;28;20034;-70
2022/01/07 08:46:09;;;;;;;27.42;19.08;;;4.40;99.90;;;;;;5026581;28;20041;-69
2022/01/07 08:48:36;;;;;;;32.40;17.90;;;4.40;99.90;;;;;;4994474;28;20502;-70
2022/01/07 08:51:03;;;;;;;34.25;19.33;;;4.40;99.90;;;;;;4994396;28;20405;-70
2022/01/07 08:53:29;;;;;;;27.40;17.92;;;4.50;99.90;;;;;;4978507;28;20102;-70
2022/01/07 08:55:55;;;;;;;32.55;19.50;;;4.60;99.90;;;;;;5007963;28;20049;-69
2022/01/07 08:58:21;;;;;;;33.72;20.23;;;4.60;99.90;;;;;;4994858;28;20128;-70
2022/01/07 09:00:47;;;;;;;31.10;16.55;;;4.70;99.90;;;;;;4994930;28;20175;-70
2022/01/07 09:03:13;;;;;;;23.58;14.55;;;4.80;99.90;;;;;;4994980;28;20049;-70
2022/01/07 09:05:39;;;;;;;28.23;19.90;;;4.80;99.90;;;;;;4995163;28;20034;-69
2022/01/07 09:08:12;;;;;;;29.77;18.73;;;4.80;99.90;;;;;;4994924;28;20046;-70
2022/01/07 09:10:42;;;;;;;34.65;19.77;;;4.90;99.90;;;;;;4995059;28;20393;-69
2022/01/07 09:13:08;;;;;;;34.03;20.67;;;4.90;99.90;;;;;;4995278;28;20057;-70
2022/01/07 09:15:35;;;;;;;35.60;21.40;;;4.90;99.90;;;;;;4994723;28;20486;-69
2022/01/07 09:18:10;;;;;;;28.73;18.90;;;4.90;99.90;;;;;;4978612;28;20095;-70
2022/01/07 09:20:37;;;;;;;12.60;7.10;;;5.00;99.90;;;;;;4994008;28;20121;-69
2022/01/07 09:23:03;;;;;;;26.65;13.52;;;4.90;99.90;;;;;;4978228;28;20056;-70
2022/01/07 09:25:29;;;;;;;11.10;6.97;;;5.00;99.90;;;;;;4992800;28;20501;-70
2022/01/07 09:27:55;;;;;;;8.35;5.65;;;4.90;99.90;;;;;;5011322;28;20135;-70
2022/01/07 09:30:21;;;;;;;8.13;4.80;;;4.80;99.90;;;;;;4994830;28;20057;-70
2022/01/07 09:32:47;;;;;;;5.57;3.28;;;4.70;99.90;;;;;;4994405;28;20041;-70
2022/01/07 09:35:15;;;;;;;9.10;2.78;;;4.60;99.90;;;;;;4978446;28;20050;-71
2022/01/07 09:37:42;;;;;;;5.00;1.75;;;4.60;99.90;;;;;;5027463;28;20045;-71
2022/01/07 09:40:09;;;;;;;5.72;2.20;;;4.50;99.90;;;;;;5027228;28;20046;-71
2022/01/07 09:42:35;;;;;;;7.28;1.52;;;4.40;99.90;;;;;;4994580;28;20098;-71
2022/01/07 09:45:01;;;;;;;7.20;1.40;;;4.40;99.90;;;;;;5009882;28;20408;-71
2022/01/07 09:47:27;;;;;;;5.18;1.10;;;4.30;99.90;;;;;;5010493;28;20069;-71
2022/01/07 09:49:53;;;;;;;3.25;1.33;;;4.30;99.90;;;;;;4994598;28;20089;-70
2022/01/07 09:52:19;;;;;;;5.05;1.08;;;4.40;99.90;;;;;;4978404;28;20045;-70
2022/01/07 09:54:48;;;;;;;3.30;1.20;;;4.40;99.90;;;;;;5008714;28;20525;-71
2022/01/07 09:57:14;;;;;;;2.95;1.30;;;4.40;99.90;;;;;;5010710;28;20038;-70
2022/01/07 09:59:40;;;;;;;5.07;1.23;;;4.50;99.90;;;;;;5026773;28;20111;-71
2022/01/07 10:02:08;;;;;;;5.63;1.25;;;4.50;99.90;;;;;;5010369;28;20095;-70
2022/01/07 10:04:33;;;;;;;6.43;1.50;;;4.50;99.90;;;;;;4994470;28;20117;-71
2022/01/07 10:07:17;;;;;;;4.13;1.42;;;5.00;99.90;;;;;;5010580;28;20439;-70
2022/01/07 10:10:02;;;;;;;4.45;1.83;;;5.30;99.90;;;;;;5026993;28;20049;-70
2022/01/07 10:12:33;;;;;;;7.63;2.60;;;5.20;99.90;;;;;;4993211;28;20073;-71
2022/01/07 10:15:10;;;;;;;5.93;1.75;;;5.00;99.90;;;;;;4976917;28;20042;-70
2022/01/07 10:17:36;;;;;;;4.10;2.45;;;5.20;99.90;;;;;;5009402;28;20127;-70
2022/01/07 10:20:02;;;;;;;5.90;3.15;;;5.20;99.90;;;;;;5025673;28;20052;-71
2022/01/07 10:22:28;;;;;;;8.85;3.30;;;5.30;99.90;;;;;;4992770;28;20053;-70
2022/01/07 10:24:55;;;;;;;4.22;2.85;;;5.30;99.90;;;;;;4990411;28;20046;-70
2022/01/07 10:27:23;;;;;;;9.13;3.15;;;5.40;99.90;;;;;;4992841;28;20038;-70
2022/01/07 10:29:49;;;;;;;7.10;3.17;;;5.50;99.90;;;;;;5009483;28;20049;-70
2022/01/07 10:32:23;;;;;;;7.18;3.83;;;5.70;99.90;;;;;;4992690;28;20409;-70
2022/01/07 10:35:14;;;;;;;10.38;4.28;;;5.70;99.90;;;;;;5009373;28;20133;-70
2022/01/07 10:37:46;;;;;;;8.05;4.32;;;5.60;99.90;;;;;;4992592;28;20128;-70
2022/01/07 10:40:36;;;;;;;13.68;4.80;;;5.60;99.90;;;;;;4976142;28;20180;-70
2022/01/07 10:43:21;;;;;;;11.98;5.55;;;5.60;99.90;;;;;;4974109;28;20054;-71
2022/01/07 10:45:56;;;;;;;8.25;4.82;;;5.80;99.90;;;;;;4992806;28;20034;-70
2022/01/07 10:48:34;;;;;;;9.50;5.47;;;6.10;99.90;;;;;;4972756;28;20494;-70
2022/01/07 10:51:09;;;;;;;12.20;6.05;;;6.20;99.90;;;;;;4973305;28;20158;-70
2022/01/07 10:53:35;;;;;;;13.73;7.40;;;6.10;99.90;;;;;;5091610;28;20042;-69
2022/01/07 10:56:16;;;;;;;13.43;8.35;;;6.10;99.90;;;;;;5092211;28;20040;-70
2022/01/07 10:58:55;;;;;;;16.95;6.57;;;6.10;99.90;;;;;;5094872;28;20035;-69
2022/01/07 11:01:21;;;;;;;12.73;6.97;;;6.60;99.90;;;;;;5041297;28;20038;-70
2022/01/07 11:03:52;;;;;;;17.13;8.77;;;7.20;99.90;;;;;;4994603;28;20405;-69
2022/01/07 11:06:19;;;;;;;13.98;7.97;;;8.00;99.90;;;;;;4995270;28;20049;-70
2022/01/07 11:08:49;;;;;;;12.35;7.75;;;8.80;99.90;;;;;;5077811;28;20046;-70
2022/01/07 11:11:15;;;;;;;13.60;7.78;;;9.40;99.90;;;;;;4992889;28;20120;-70
2022/01/07 11:13:43;;;;;;;15.40;8.52;;;9.50;99.90;;;;;;5001655;28;20035;-69
2022/01/07 11:16:08;;;;;;;18.02;8.30;;;9.10;99.90;;;;;;5095351;28;20031;-70
2022/01/07 11:18:39;;;;;;;14.48;9.95;;;8.60;99.90;;;;;;5094132;28;20296;-69
2022/01/07 11:21:06;;;;;;;16.52;9.32;;;8.20;99.90;;;;;;5004628;28;20038;-70
2022/01/07 11:23:37;;;;;;;14.90;10.13;;;8.00;99.90;;;;;;4992106;28;20046;-69
2022/01/07 11:26:10;;;;;;;18.88;7.20;;;7.70;99.90;;;;;;4989613;28;20537;-70
2022/01/07 11:28:52;;;;;;;22.58;9.90;;;7.30;99.90;;;;;;5008092;28;20048;-69
2022/01/07 11:31:18;;;;;;;16.90;9.70;;;7.00;99.90;;;;;;4991952;28;20038;-69
2022/01/07 11:33:44;;;;;;;14.88;9.13;;;6.90;99.90;;;;;;4997507;28;20118;-69
2022/01/07 11:36:11;;;;;;;13.43;8.02;;;6.80;99.90;;;;;;4972494;28;20380;-69
2022/01/07 11:38:43;;;;;;;13.25;8.10;;;7.10;99.90;;;;;;4956390;28;20367;-70
2022/01/07 11:41:12;;;;;;;17.75;7.80;;;7.20;99.90;;;;;;4972538;28;20046;-70
2022/01/07 11:43:40;;;;;;;15.55;7.25;;;7.10;99.90;;;;;;4972441;28;20053;-70
2022/01/07 11:46:21;;;;;;;14.25;6.72;;;6.90;99.90;;;;;;4972529;28;20042;-70
2022/01/07 11:48:48;;;;;;;13.05;6.03;;;6.80;99.90;;;;;;4972333;28;20399;-70
2022/01/07 11:51:16;;;;;;;9.73;4.72;;;6.70;99.90;;;;;;4972516;28;20102;-70
2022/01/07 11:53:41;;;;;;;9.68;3.63;;;6.80;99.90;;;;;;4972406;28;20047;-69
2022/01/07 11:56:10;;;;;;;11.45;4.90;;;6.90;99.90;;;;;;4970122;28;20079;-69
2022/01/07 11:58:51;;;;;;;8.13;3.08;;;6.90;99.90;;;;;;4972013;28;20039;-69
2022/01/07 12:01:27;;;;;;;10.40;3.78;;;6.70;99.90;;;;;;4972484;28;20053;-69
2022/01/07 12:03:54;;;;;;;10.23;2.67;;;6.40;99.90;;;;;;4956368;28;20038;-69
2022/01/07 12:06:31;;;;;;;12.98;2.83;;;6.20;99.90;;;;;;4972377;28;20393;-69
2022/01/07 12:09:05;;;;;;;7.25;2.08;;;6.30;99.90;;;;;;4974532;28;20042;-69
2022/01/07 12:11:45;;;;;;;9.52;2.05;;;6.40;99.90;;;;;;4975406;28;20532;-68
2022/01/07 12:14:59;;;;;;;7.80;2.22;;;6.80;99.90;;;;;;4975353;28;20049;-69
2022/01/07 12:17:25;;;;;;;6.15;2.67;;;7.40;99.90;;;;;;4978802;28;20061;-69
2022/01/07 12:19:51;;;;;;;8.32;2.00;;;7.90;99.90;;;;;;4975265;28;20046;-69
2022/01/07 12:22:17;;;;;;;7.32;2.08;;;8.10;99.90;;;;;;4975413;28;20414;-69
2022/01/07 12:24:44;;;;;;;10.60;2.30;;;8.20;99.90;;;;;;5005367;28;20054;-69
2022/01/07 12:27:23;;;;;;;8.93;2.30;;;8.40;99.90;;;;;;4975292;28;20130;-69
2022/01/07 12:29:51;;;;;;;6.38;2.47;;;8.60;99.90;;;;;;4975122;28;20125;-69
2022/01/07 12:32:18;;;;;;;8.38;2.58;;;8.80;99.90;;;;;;4959016;28;20129;-69
2022/01/07 12:34:47;;;;;;;10.38;2.67;;;9.00;99.90;;;;;;4993694;28;20103;-69
2022/01/07 12:37:16;;;;;;;8.90;3.53;;;8.90;99.90;;;;;;4994906;28;20405;-68
2022/01/07 12:39:47;;;;;;;10.32;3.03;;;8.50;99.90;;;;;;4978517;28;20378;-69
2022/01/07 12:42:13;;;;;;;8.65;2.33;;;8.30;99.90;;;;;;4994491;28;20046;-68
2022/01/07 12:44:43;;;;;;;9.18;2.33;;;8.00;99.90;;;;;;4994525;28;20126;-69
2022/01/07 12:47:13;;;;;;;5.57;2.10;;;7.70;99.90;;;;;;4994341;28;20042;-69
2022/01/07 12:49:51;;;;;;;9.55;2.50;;;7.30;99.90;;;;;;4978383;28;20284;-69
2022/01/07 12:52:25;;;;;;;5.95;2.13;;;7.10;99.90;;;;;;4994323;28;20096;-68
2022/01/07 12:54:57;;;;;;;11.13;3.05;;;6.80;99.90;;;;;;5024550;28;20559;-69
2022/01/07 12:57:27;;;;;;;8.55;2.58;;;6.60;99.90;;;;;;5027270;28;20447;-69
2022/01/07 13:00:21;;;;;;;6.53;2.95;;;6.40;99.90;;;;;;5026928;28;20271;-69